createdAt,value
2018-04-19T00:00:39.783Z,20.13
2018-04-19T00:03:07.280Z,13.67
2018-04-19T00:05:34.728Z,19.80
2018-04-19T00:08:02.208Z,12.17
2018-04-19T00:10:29.690Z,19.43
2018-04-19T00:12:57.184Z,14.40
2018-04-19T00:15:24.652Z,18.53
2018-04-19T00:17:52.147Z,18.30
2018-04-19T00:20:19.607Z,16.80
2018-04-19T00:22:47.136Z,20.70
2018-04-19T00:25:14.609Z,18.03
2018-04-19T00:27:42.067Z,22.00
2018-04-19T00:30:09.581Z,21.83
2018-04-19T00:32:37.040Z,22.57
2018-04-19T00:35:04.532Z,13.20
2018-04-19T00:37:32.925Z,16.53
2018-04-19T00:40:00.428Z,22.37
2018-04-19T00:42:27.889Z,29.83
2018-04-19T00:44:55.375Z,18.33
2018-04-19T00:47:22.844Z,18.33
2018-04-19T00:49:50.332Z,19.67
2018-04-19T00:52:17.796Z,14.20
2018-04-19T00:54:45.296Z,23.13
2018-04-19T00:57:12.752Z,16.07
2018-04-19T00:59:40.260Z,16.67
2018-04-19T01:02:07.719Z,23.50
2018-04-19T01:04:35.208Z,19.43
2018-04-19T01:07:02.684Z,20.30
2018-04-19T01:09:30.196Z,16.87
2018-04-19T01:11:57.651Z,21.80
2018-04-19T01:14:25.108Z,17.67
2018-04-19T01:16:52.592Z,21.73
2018-04-19T01:19:20.053Z,16.40
2018-04-19T01:21:47.575Z,16.30
2018-04-19T01:24:15.032Z,16.63
2018-04-19T01:26:43.487Z,19.50
2018-04-19T01:29:10.953Z,20.23
2018-04-19T01:31:39.511Z,17.30
2018-04-19T01:34:06.968Z,21.73
2018-04-19T01:36:34.451Z,16.00
2018-04-19T01:39:02.895Z,16.67
2018-04-19T01:41:30.382Z,18.70
2018-04-19T01:43:57.844Z,14.10
2018-04-19T01:46:26.249Z,19.90
2018-04-19T01:48:53.706Z,17.43
2018-04-19T01:51:21.196Z,19.77
2018-04-19T01:53:48.651Z,16.10
2018-04-19T01:56:16.138Z,15.20
2018-04-19T01:58:44.494Z,14.20
2018-04-19T02:01:11.990Z,23.93
2018-04-19T02:03:39.455Z,13.60
2018-04-19T02:06:06.928Z,20.43
2018-04-19T02:08:34.435Z,18.73
2018-04-19T02:11:01.901Z,22.00
2018-04-19T02:13:29.408Z,17.43
2018-04-19T02:15:56.873Z,17.73
2018-04-19T02:18:24.375Z,21.97
2018-04-19T02:20:51.831Z,18.87
2018-04-19T02:23:19.313Z,19.80
2018-04-19T02:25:46.795Z,16.00
2018-04-19T02:28:14.285Z,17.60
2018-04-19T02:30:41.740Z,21.70
2018-04-19T02:33:09.237Z,20.97
2018-04-19T02:35:37.326Z,17.43
2018-04-19T02:38:04.809Z,15.23
2018-04-19T02:40:32.268Z,17.80
2018-04-19T02:42:59.752Z,15.67
2018-04-19T02:45:27.229Z,34.27
2018-04-19T02:47:54.742Z,22.47
2018-04-19T02:50:22.224Z,23.93
2018-04-19T02:52:49.723Z,17.23
2018-04-19T02:55:18.152Z,20.33
2018-04-19T02:57:45.645Z,14.90
2018-04-19T03:00:13.117Z,17.53
2018-04-19T03:02:40.628Z,13.20
2018-04-19T03:05:08.089Z,20.00
2018-04-19T03:07:35.556Z,25.80
2018-04-19T03:10:03.043Z,23.40
2018-04-19T03:12:30.515Z,25.20
2018-04-19T03:14:58.031Z,24.90
2018-04-19T03:17:25.500Z,22.13
2018-04-19T03:19:52.997Z,31.50
2018-04-19T03:22:20.457Z,27.17
2018-04-19T03:24:47.956Z,25.40
2018-04-19T03:27:15.416Z,33.63
2018-04-19T03:29:42.914Z,29.20
2018-04-19T03:32:10.383Z,28.23
2018-04-19T03:34:37.901Z,32.23
2018-04-19T03:37:06.377Z,29.17
2018-04-19T03:39:33.869Z,27.07
2018-04-19T03:42:02.312Z,29.93
2018-04-19T03:44:29.843Z,29.07
2018-04-19T03:46:57.317Z,37.47
2018-04-19T03:49:25.707Z,31.93
2018-04-19T03:51:53.254Z,36.87
2018-04-19T03:54:20.714Z,30.37
2018-04-19T03:56:48.214Z,31.20
2018-04-19T03:59:15.674Z,31.13
2018-04-19T04:01:43.179Z,27.30
2018-04-19T04:04:10.646Z,32.87
2018-04-19T04:06:38.150Z,33.07
2018-04-19T04:09:06.488Z,40.37
2018-04-19T04:11:33.981Z,28.53
2018-04-19T04:14:01.448Z,33.30
2018-04-19T04:16:40.822Z,41.73
2018-04-19T04:19:20.011Z,49.10
2018-04-19T04:21:59.288Z,41.00
2018-04-19T04:24:26.756Z,27.67
2018-04-19T04:26:54.256Z,33.63
2018-04-19T04:29:22.584Z,35.20
2018-04-19T04:31:50.076Z,37.37
2018-04-19T04:34:17.548Z,44.53
2018-04-19T04:36:45.034Z,36.60
2018-04-19T04:39:12.492Z,27.23
2018-04-19T04:41:40.016Z,31.50
2018-04-19T04:44:07.476Z,28.57
2018-04-19T04:46:34.947Z,32.60
2018-04-19T04:49:03.412Z,35.10
2018-04-19T04:51:31.332Z,34.20
2018-04-19T04:53:59.770Z,32.40
2018-04-19T04:56:28.216Z,32.63
2018-04-19T04:58:55.705Z,27.27
2018-04-19T05:01:23.164Z,28.90
2018-04-19T05:03:50.653Z,31.37
2018-04-19T05:06:20.107Z,31.67
2018-04-19T05:08:47.609Z,32.90
2018-04-19T05:11:15.084Z,28.53
2018-04-19T05:13:42.585Z,31.93
2018-04-19T05:16:11.436Z,34.00
2018-04-19T05:18:38.943Z,40.30
2018-04-19T05:21:06.403Z,39.97
2018-04-19T05:23:33.907Z,37.53
2018-04-19T05:26:01.368Z,43.53
2018-04-19T05:28:28.864Z,34.07
2018-04-19T05:30:56.324Z,29.03
2018-04-19T05:33:23.811Z,31.40
2018-04-19T05:35:52.195Z,36.77
2018-04-19T05:38:19.691Z,35.63
2018-04-19T05:40:47.145Z,29.70
2018-04-19T05:43:14.594Z,38.87
2018-04-19T05:45:43.105Z,31.30
2018-04-19T05:48:10.587Z,34.33
2018-04-19T05:50:40.048Z,37.47
2018-04-19T05:53:07.512Z,37.50
2018-04-19T05:55:35.012Z,45.03
2018-04-19T05:58:02.759Z,47.00
2018-04-19T06:00:30.248Z,40.87
2018-04-19T06:02:57.712Z,44.10
2018-04-19T06:05:25.224Z,44.20
2018-04-19T06:07:52.688Z,37.27
2018-04-19T06:10:20.229Z,40.53
2018-04-19T06:12:47.695Z,35.40
2018-04-19T06:15:15.211Z,34.10
2018-04-19T06:17:42.652Z,45.97
2018-04-19T06:20:10.420Z,37.70
2018-04-19T06:22:37.879Z,34.00
2018-04-19T06:25:05.335Z,47.13
2018-04-19T06:27:32.827Z,32.87
2018-04-19T06:30:00.311Z,34.70
2018-04-19T06:32:28.735Z,33.33
2018-04-19T06:34:56.216Z,37.77
2018-04-19T06:37:23.717Z,24.33
2018-04-19T06:39:51.184Z,27.60
2018-04-19T06:42:18.671Z,18.70
2018-04-19T06:44:47.112Z,15.20
2018-04-19T06:47:17.766Z,16.67
2018-04-19T06:49:46.128Z,18.50
2018-04-19T06:52:13.635Z,19.30
2018-04-19T06:54:41.089Z,16.47
2018-04-19T06:57:08.531Z,15.67
2018-04-19T06:59:36.011Z,16.43
2018-04-19T07:02:03.468Z,13.00
2018-04-19T07:04:30.947Z,9.97
2018-04-19T07:06:58.405Z,9.10
2018-04-19T07:09:25.889Z,14.70
2018-04-19T07:11:53.345Z,14.43
2018-04-19T07:14:22.772Z,13.77
2018-04-19T07:16:50.229Z,12.23
2018-04-19T07:19:17.712Z,11.70
2018-04-19T07:21:45.168Z,9.10
2018-04-19T07:24:12.644Z,15.17
2018-04-19T07:26:40.099Z,13.03
2018-04-19T07:29:07.600Z,15.83
2018-04-19T07:31:36.052Z,13.50
2018-04-19T07:34:03.508Z,10.53
2018-04-19T07:36:30.999Z,15.00
2018-04-19T07:38:58.481Z,14.40
2018-04-19T07:41:25.939Z,12.73
2018-04-19T07:43:53.395Z,19.93
2018-04-19T07:46:21.796Z,12.90
2018-04-19T07:48:49.248Z,16.83
2018-04-19T07:51:16.740Z,13.77
2018-04-19T07:53:44.196Z,10.90
2018-04-19T07:56:12.732Z,13.30
2018-04-19T07:58:40.209Z,16.00
2018-04-19T08:01:07.703Z,18.30
2018-04-19T08:03:35.163Z,16.47
2018-04-19T08:06:02.646Z,12.13
2018-04-19T08:08:30.096Z,11.90
2018-04-19T08:10:57.580Z,19.17
2018-04-19T08:13:25.027Z,13.40
2018-04-19T08:15:52.532Z,14.33
2018-04-19T08:18:19.994Z,17.70
2018-04-19T08:20:47.451Z,12.80
2018-04-19T08:23:14.936Z,13.80
2018-04-19T08:25:42.393Z,12.37
2018-04-19T08:28:09.875Z,13.57
2018-04-19T08:30:37.337Z,15.83
2018-04-19T08:33:04.832Z,15.23
2018-04-19T08:35:32.299Z,15.17
2018-04-19T08:37:59.783Z,16.40
2018-04-19T08:40:27.242Z,16.00
2018-04-19T08:42:54.706Z,13.13
2018-04-19T08:45:23.047Z,14.90
2018-04-19T08:47:50.537Z,13.43
2018-04-19T08:50:18.033Z,14.60
2018-04-19T08:52:45.489Z,14.87
2018-04-19T08:55:12.957Z,16.70
2018-04-19T08:57:41.440Z,14.67
2018-04-19T09:00:08.896Z,12.03
2018-04-19T09:02:36.349Z,13.13
2018-04-19T09:05:03.833Z,13.27
2018-04-19T09:07:31.292Z,19.17
2018-04-19T09:09:58.781Z,13.10
2018-04-19T09:12:26.255Z,13.60
2018-04-19T09:14:53.740Z,12.87
2018-04-19T09:17:21.203Z,12.37
2018-04-19T09:19:48.698Z,17.23
2018-04-19T09:22:16.152Z,15.53
2018-04-19T09:24:43.635Z,19.40
2018-04-19T09:27:11.084Z,19.13
2018-04-19T09:29:38.606Z,12.13
2018-04-19T09:32:06.070Z,20.03
2018-04-19T09:34:33.533Z,17.93
2018-04-19T09:37:01.016Z,17.63
2018-04-19T09:39:28.484Z,12.30
2018-04-19T09:41:55.964Z,21.07
2018-04-19T09:44:23.411Z,14.47
2018-04-19T09:46:51.845Z,18.17
2018-04-19T09:49:19.300Z,15.00
2018-04-19T09:51:46.779Z,19.40
2018-04-19T09:54:14.275Z,21.60
2018-04-19T09:56:41.733Z,17.43
2018-04-19T09:59:13.903Z,16.67
2018-04-19T10:01:47.170Z,17.47
2018-04-19T10:04:14.625Z,16.23
2018-04-19T10:06:42.117Z,15.93
2018-04-19T10:09:09.585Z,14.90
2018-04-19T10:11:37.076Z,21.47
2018-04-19T10:14:04.533Z,21.23
2018-04-19T10:16:32.034Z,16.50
2018-04-19T10:18:59.504Z,21.73
2018-04-19T10:21:27.025Z,18.03
2018-04-19T10:26:30.320Z,18.47
2018-04-19T10:28:57.792Z,20.20
2018-04-19T10:31:25.249Z,18.00
2018-04-19T10:33:52.801Z,17.97
2018-04-19T10:36:21.224Z,16.60
2018-04-19T10:38:48.711Z,18.50
2018-04-19T10:41:16.242Z,21.70
2018-04-19T10:43:43.700Z,20.83
2018-04-19T10:46:11.169Z,16.30
2018-04-19T10:48:38.656Z,21.63
2018-04-19T10:51:06.123Z,19.97
2018-04-19T10:53:33.613Z,28.23
2018-04-19T10:56:01.088Z,24.10
2018-04-19T10:58:28.576Z,24.00
2018-04-19T11:00:57.053Z,22.10
2018-04-19T11:03:24.524Z,24.17
2018-04-19T11:05:52.001Z,18.37
2018-04-19T11:08:19.497Z,27.83
2018-04-19T11:10:46.957Z,20.30
2018-04-19T11:13:14.425Z,24.40
2018-04-19T11:15:41.933Z,33.03
2018-04-19T11:18:09.404Z,25.03
2018-04-19T11:20:37.835Z,24.03
2018-04-19T11:23:05.300Z,23.37
2018-04-19T11:25:33.776Z,20.63
2018-04-19T11:28:01.247Z,18.97
2018-04-19T11:30:29.700Z,30.93
2018-04-19T11:32:57.156Z,22.77
2018-04-19T11:35:24.655Z,27.47
2018-04-19T11:37:52.122Z,22.17
2018-04-19T11:40:20.524Z,23.93
2018-04-19T11:42:48.002Z,23.67
2018-04-19T11:45:15.516Z,20.63
2018-04-19T11:47:43.915Z,25.40
2018-04-19T11:50:11.399Z,19.40
2018-04-19T11:52:38.864Z,27.80
2018-04-19T11:55:06.359Z,27.57
2018-04-19T11:57:34.791Z,22.03
2018-04-19T12:00:02.274Z,20.00
2018-04-19T12:02:29.732Z,25.30
2018-04-19T12:04:57.200Z,35.20
2018-04-19T12:07:24.704Z,25.30
2018-04-19T12:09:52.165Z,22.53
2018-04-19T12:20:12.139Z,22.07
2018-04-19T12:22:40.613Z,24.00
2018-04-19T12:25:11.927Z,26.03
2018-04-19T12:27:40.323Z,25.87
2018-04-19T12:30:07.783Z,21.60
2018-04-19T12:32:35.270Z,28.67
2018-04-19T12:35:02.735Z,24.00
2018-04-19T12:37:30.278Z,20.47
2018-04-19T12:39:57.687Z,22.63
2018-04-19T12:42:26.097Z,22.03
2018-04-19T12:44:53.556Z,24.03
2018-04-19T12:47:21.069Z,22.00
2018-04-19T12:49:48.536Z,25.17
2018-04-19T12:52:15.983Z,23.20
2018-04-19T12:54:43.471Z,23.40
2018-04-19T12:57:10.928Z,22.67
2018-04-19T12:59:38.411Z,21.07
2018-04-19T13:02:05.867Z,20.83
2018-04-19T13:04:34.262Z,21.70
2018-04-19T13:07:02.668Z,21.37
2018-04-19T13:09:30.149Z,23.00
2018-04-19T13:11:58.612Z,23.57
2018-04-19T13:14:26.100Z,27.67
2018-04-19T13:16:53.563Z,19.57
2018-04-19T13:19:21.053Z,20.70
2018-04-19T13:21:48.514Z,24.40
2018-04-19T13:24:16.947Z,25.77
2018-04-19T13:26:44.407Z,20.93
2018-04-19T13:29:11.893Z,22.27
2018-04-19T13:31:39.368Z,21.50
2018-04-19T13:34:06.856Z,21.50
2018-04-19T13:36:34.312Z,22.17
2018-04-19T13:39:01.772Z,23.13
2018-04-19T13:41:36.033Z,22.00
2018-04-19T13:44:03.497Z,19.93
2018-04-19T13:46:30.980Z,22.23
2018-04-19T13:48:58.431Z,27.10
2018-04-19T13:51:25.916Z,18.60
2018-04-19T13:53:53.375Z,25.53
2018-04-19T13:56:20.882Z,25.80
2018-04-19T13:58:48.341Z,28.50
2018-04-19T14:01:15.839Z,24.67
2018-04-19T14:03:43.307Z,24.57
2018-04-19T14:06:10.803Z,20.57
2018-04-19T14:08:38.278Z,30.47
2018-04-19T14:11:05.773Z,21.27
2018-04-19T14:13:35.248Z,17.87
2018-04-19T14:16:03.739Z,23.80
2018-04-19T14:18:31.207Z,20.93
2018-04-19T14:20:59.635Z,15.93
2018-04-19T14:23:27.119Z,27.23
2018-04-19T14:25:54.575Z,19.60
2018-04-19T14:28:22.062Z,19.40
2018-04-19T14:30:49.508Z,24.40
2018-04-19T14:33:17.000Z,22.87
2018-04-19T14:35:44.456Z,20.40
2018-04-19T14:38:11.949Z,22.80
2018-04-19T14:40:39.411Z,21.77
2018-04-19T14:43:06.902Z,16.53
2018-04-19T14:45:34.383Z,21.97
2018-04-19T14:48:03.843Z,21.63
2018-04-19T14:50:31.304Z,22.80
2018-04-19T14:52:58.811Z,21.60
2018-04-19T14:55:26.331Z,26.37
2018-04-19T14:57:53.771Z,19.80
2018-04-19T15:00:21.236Z,22.80
2018-04-19T15:02:48.729Z,25.70
2018-04-19T15:05:16.200Z,25.47
2018-04-19T15:07:43.695Z,20.17
2018-04-19T15:10:11.156Z,23.33
2018-04-19T15:12:38.665Z,23.00
2018-04-19T15:15:06.136Z,17.80
2018-04-19T15:17:33.641Z,23.70
2018-04-19T15:20:01.128Z,22.13
2018-04-19T15:22:30.595Z,23.53
2018-04-19T15:24:58.051Z,19.23
2018-04-19T15:27:25.508Z,17.83
2018-04-19T15:29:52.995Z,23.90
2018-04-19T15:32:21.351Z,22.83
2018-04-19T15:34:58.595Z,19.60
2018-04-19T15:37:27.008Z,29.10
2018-04-19T15:39:55.419Z,28.50
2018-04-19T15:42:22.872Z,24.63
2018-04-19T15:44:50.366Z,24.40
2018-04-19T15:47:17.817Z,22.13
2018-04-19T15:49:45.316Z,18.40
2018-04-19T15:52:12.775Z,23.87
2018-04-19T15:54:40.267Z,19.67
2018-04-19T15:57:07.740Z,24.17
2018-04-19T15:59:35.228Z,24.70
2018-04-19T16:02:02.752Z,22.70
2018-04-19T16:04:31.232Z,18.63
2018-04-19T16:06:58.703Z,18.10
2018-04-19T16:09:26.191Z,23.10
2018-04-19T16:11:53.662Z,21.77
2018-04-19T16:14:21.135Z,23.87
2018-04-19T16:16:48.602Z,17.93
2018-04-19T16:19:16.077Z,25.37
2018-04-19T16:21:45.524Z,23.10
2018-04-19T16:24:12.975Z,25.07
2018-04-19T16:26:40.444Z,25.63
2018-04-19T16:29:08.817Z,24.07
2018-04-19T16:31:36.279Z,18.80
2018-04-19T16:34:03.719Z,16.93
2018-04-19T16:36:32.102Z,26.37
2018-04-19T16:39:00.485Z,18.70
2018-04-19T16:41:27.967Z,19.87
2018-04-19T16:43:57.264Z,25.57
2018-04-19T16:46:24.790Z,19.47
2018-04-19T16:48:52.263Z,17.90
2018-04-19T16:51:19.748Z,21.20
2018-04-19T16:53:47.211Z,23.23
2018-04-19T16:56:14.726Z,21.30
2018-04-19T17:01:51.768Z,17.47
2018-04-19T17:04:19.239Z,22.33
2018-04-19T17:06:46.728Z,20.63
2018-04-19T17:09:14.195Z,16.60
2018-04-19T17:11:41.680Z,23.40
2018-04-19T17:14:09.291Z,17.90
2018-04-19T17:16:36.796Z,20.07
2018-04-19T17:19:05.182Z,15.53
2018-04-19T17:21:32.709Z,17.23
2018-04-19T17:24:00.181Z,20.47
2018-04-19T17:26:27.900Z,18.23
2018-04-19T17:28:56.327Z,17.20
2018-04-19T17:31:23.811Z,22.50
2018-04-19T17:33:52.308Z,20.27
2018-04-19T17:36:19.763Z,20.47
2018-04-19T17:38:47.246Z,24.10
2018-04-19T17:41:14.744Z,18.77
2018-04-19T17:43:42.232Z,21.33
2018-04-19T17:46:09.712Z,18.03
2018-04-19T17:48:37.217Z,19.77
2018-04-19T17:51:04.676Z,19.27
2018-04-19T17:53:32.163Z,19.30
2018-04-19T17:55:59.692Z,23.90
2018-04-19T17:58:27.175Z,20.43
2018-04-19T18:00:54.635Z,23.87
2018-04-19T18:03:22.127Z,17.70
2018-04-19T18:05:50.562Z,20.17
2018-04-19T18:08:18.959Z,24.37
2018-04-19T18:10:46.992Z,24.83
2018-04-19T18:13:14.484Z,19.13
2018-04-19T18:15:41.931Z,21.37
2018-04-19T18:18:09.394Z,27.77
2018-04-19T18:20:36.875Z,18.13
2018-04-19T18:23:05.112Z,19.10
2018-04-19T18:25:33.523Z,19.57
2018-04-19T18:28:01.984Z,20.43
2018-04-19T18:30:29.482Z,14.83
2018-04-19T18:32:56.956Z,22.57
2018-04-19T18:35:24.446Z,30.10
2018-04-19T18:37:51.918Z,23.03
2018-04-19T18:40:19.423Z,21.23
2018-04-19T18:42:46.879Z,22.53
2018-04-19T18:45:14.399Z,24.17
2018-04-19T18:47:41.951Z,18.23
2018-04-19T18:50:09.447Z,21.43
2018-04-19T18:52:36.928Z,26.23
2018-04-19T18:55:04.429Z,21.30
2018-04-19T18:57:31.976Z,21.13
2018-04-19T18:59:59.479Z,21.23
2018-04-19T19:02:26.940Z,28.80
2018-04-19T19:04:55.845Z,24.83
2018-04-19T19:07:23.344Z,23.07
2018-04-19T19:09:50.818Z,19.00
2018-04-19T19:12:18.416Z,19.40
2018-04-19T19:14:49.336Z,21.80
2018-04-19T19:17:30.443Z,18.33
2018-04-19T19:20:09.832Z,23.37
2018-04-19T19:22:38.344Z,21.20
2018-04-19T19:25:05.827Z,18.47
2018-04-19T19:27:33.307Z,23.20
2018-04-19T19:30:00.741Z,19.80
2018-04-19T19:32:28.209Z,19.53
2018-04-19T19:34:55.661Z,20.90
2018-04-19T19:37:23.149Z,30.10
2018-04-19T19:39:50.625Z,25.20
2018-04-19T19:42:18.147Z,18.70
2018-04-19T19:44:45.645Z,21.07
2018-04-19T19:47:14.091Z,22.03
2018-04-19T19:49:41.555Z,29.63
2018-04-19T19:52:09.065Z,27.10
2018-04-19T19:54:36.520Z,36.07
2018-04-19T19:57:04.000Z,33.13
2018-04-19T19:59:31.501Z,36.00
2018-04-19T20:01:59.032Z,35.27
2018-04-19T20:04:26.523Z,30.47
2018-04-19T20:06:54.119Z,29.77
2018-04-19T20:09:21.617Z,28.17
2018-04-19T20:11:49.103Z,25.13
2018-04-19T20:14:16.568Z,20.10
2018-04-19T20:16:44.069Z,20.40
2018-04-19T20:19:11.535Z,18.93
2018-04-19T20:21:39.023Z,17.47
2018-04-19T20:24:06.489Z,12.93
2018-04-19T20:26:34.007Z,16.90
2018-04-19T20:29:01.554Z,17.93
2018-04-19T20:31:29.056Z,15.67
2018-04-19T20:33:56.512Z,12.27
2018-04-19T20:36:24.043Z,20.67
2018-04-19T20:38:51.610Z,20.73
2018-04-19T20:41:19.064Z,17.33
2018-04-19T20:43:46.553Z,18.70
2018-04-19T20:46:14.075Z,15.30
2018-04-19T20:48:41.579Z,13.47
2018-04-19T20:51:09.088Z,19.77
2018-04-19T20:53:37.669Z,19.90
2018-04-19T20:56:05.229Z,15.90
2018-04-19T20:58:32.717Z,13.00
2018-04-19T21:01:00.170Z,18.23
2018-04-19T21:03:27.660Z,20.73
2018-04-19T21:05:55.123Z,16.57
2018-04-19T21:08:22.608Z,12.13
2018-04-19T21:10:50.084Z,22.03
2018-04-19T21:13:17.569Z,19.23
2018-04-19T21:15:45.031Z,18.13
2018-04-19T21:18:12.533Z,18.07
2018-04-19T21:20:39.996Z,19.03
2018-04-19T21:23:07.528Z,20.00
2018-04-19T21:25:34.979Z,14.53
2018-04-19T21:28:03.487Z,12.50
2018-04-19T21:30:31.046Z,17.73
2018-04-19T21:32:58.580Z,13.23
2018-04-19T21:35:26.079Z,16.77
2018-04-19T21:37:55.531Z,14.23
2018-04-19T21:40:23.003Z,15.77
2018-04-19T21:42:50.455Z,20.00
2018-04-19T21:45:17.934Z,17.03
2018-04-19T21:47:45.392Z,20.90
2018-04-19T21:50:12.877Z,18.57
2018-04-19T21:52:41.329Z,20.27
2018-04-19T21:55:08.917Z,15.33
2018-04-19T21:57:36.379Z,11.37
2018-04-19T22:00:03.868Z,21.20
2018-04-19T22:02:31.387Z,26.83
2018-04-19T22:04:58.878Z,14.70
2018-04-19T22:07:26.345Z,20.57
2018-04-19T22:09:53.800Z,19.37
2018-04-19T22:12:21.315Z,17.10
2018-04-19T22:14:48.772Z,21.10
2018-04-19T22:17:16.265Z,13.90
2018-04-19T22:19:43.744Z,14.63
2018-04-19T22:22:11.229Z,18.93
2018-04-19T22:24:38.692Z,16.10
2018-04-19T22:27:06.183Z,12.50
2018-04-19T22:29:33.641Z,16.33
2018-04-19T22:32:01.204Z,17.60
2018-04-19T22:34:28.773Z,19.30
2018-04-19T22:36:56.262Z,19.57
2018-04-19T22:39:23.720Z,18.10
2018-04-19T22:41:51.241Z,20.53
2018-04-19T22:44:18.690Z,17.33
2018-04-19T22:46:46.179Z,20.03
2018-04-19T22:49:13.628Z,15.13
2018-04-19T22:51:41.127Z,18.17
2018-04-19T22:54:08.595Z,15.03
2018-04-19T22:56:36.083Z,24.33
2018-04-19T22:59:03.569Z,34.47
2018-04-19T23:01:31.034Z,18.90
2018-04-19T23:03:58.511Z,23.73
2018-04-19T23:06:25.969Z,16.20
2018-04-19T23:08:53.559Z,23.03
2018-04-19T23:11:21.020Z,21.30
2018-04-19T23:13:48.508Z,23.23
2018-04-19T23:16:15.963Z,20.27
2018-04-19T23:18:43.449Z,17.40
2018-04-19T23:21:10.952Z,22.27
2018-04-19T23:23:38.440Z,23.60
2018-04-19T23:26:05.883Z,20.70
2018-04-19T23:28:33.368Z,17.40
2018-04-19T23:31:01.767Z,23.10
2018-04-19T23:33:29.262Z,18.20
2018-04-19T23:35:56.723Z,22.53
2018-04-19T23:38:24.223Z,20.23
2018-04-19T23:40:51.671Z,18.47
2018-04-19T23:43:19.123Z,19.47
2018-04-19T23:45:46.640Z,19.23
2018-04-19T23:48:14.095Z,21.07
2018-04-19T23:50:41.663Z,22.13
2018-04-19T23:53:09.120Z,16.67
2018-04-19T23:55:36.671Z,20.83
2018-04-19T23:58:04.123Z,22.70
